sensor_id;sensor_type;location;lat;lon;timestamp;P1;durP1;ratioP1;P2;durP2;ratioP2
53939;SDS011;39850;43.324;21.916;2022-08-06T00:00:10;10.0;;;9.0;;
53939;SDS011;39850;43.324;21.916;2022-08-06T00:32:41;10.0;;;9.0;;
53939;SDS011;39850;43.324;21.916;2022-08-06T00:37:18;10.0;;;9.0;;
53939;SDS011;39850;43.324;21.916;2022-08-06T00:41:56;10.0;;;9.0;;
53939;SDS011;39850;43.324;21.916;2022-08-06T00:46:33;10.0;;;10.0;;
53939;SDS011;39850;43.324;21.916;2022-08-06T00:51:10;10.0;;;10.0;;
53939;SDS011;39850;43.324;21.916;2022-08-06T00:55:47;11.0;;;10.0;;
53939;SDS011;39850;43.324;21.916;2022-08-06T01:00:24;11.0;;;10.0;;
53939;SDS011;39850;43.324;21.916;2022-08-06T01:05:03;12.0;;;11.0;;
53939;SDS011;39850;43.324;21.916;2022-08-06T01:09:40;12.0;;;11.0;;
53939;SDS011;39850;43.324;21.916;2022-08-06T01:14:17;12.0;;;12.0;;
53939;SDS011;39850;43.324;21.916;2022-08-06T01:19:53;12.0;;;12.0;;
53939;SDS011;39850;43.324;21.916;2022-08-06T01:56:06;10.0;;;9.0;;
53939;SDS011;39850;43.324;21.916;2022-08-06T02:00:54;10.0;;;9.0;;
53939;SDS011;39850;43.324;21.916;2022-08-06T02:05:44;10.0;;;9.0;;
53939;SDS011;39850;43.324;21.916;2022-08-06T02:10:36;10.0;;;9.0;;
53939;SDS011;39850;43.324;21.916;2022-08-06T02:15:30;10.0;;;9.0;;
53939;SDS011;39850;43.324;21.916;2022-08-06T02:20:33;10.0;;;9.0;;
53939;SDS011;39850;43.324;21.916;2022-08-06T02:25:26;10.0;;;9.0;;
53939;SDS011;39850;43.324;21.916;2022-08-06T02:30:13;10.0;;;9.0;;
53939;SDS011;39850;43.324;21.916;2022-08-06T02:34:52;10.0;;;9.0;;
53939;SDS011;39850;43.324;21.916;2022-08-06T02:40:03;10.0;;;9.0;;
53939;SDS011;39850;43.324;21.916;2022-08-06T03:14:52;9.0;;;9.0;;
53939;SDS011;39850;43.324;21.916;2022-08-06T03:19:39;9.0;;;9.0;;
53939;SDS011;39850;43.324;21.916;2022-08-06T03:24:26;10.0;;;9.0;;
53939;SDS011;39850;43.324;21.916;2022-08-06T03:29:11;10.0;;;9.0;;
53939;SDS011;39850;43.324;21.916;2022-08-06T03:33:54;9.0;;;9.0;;
53939;SDS011;39850;43.324;21.916;2022-08-06T03:39:05;9.0;;;9.0;;
53939;SDS011;39850;43.324;21.916;2022-08-06T03:43:44;10.0;;;9.0;;
53939;SDS011;39850;43.324;21.916;2022-08-06T03:48:40;10.0;;;9.0;;
53939;SDS011;39850;43.324;21.916;2022-08-06T03:53:30;9.0;;;9.0;;
53939;SDS011;39850;43.324;21.916;2022-08-06T03:58:20;9.0;;;9.0;;
53939;SDS011;39850;43.324;21.916;2022-08-06T04:36:09;11.0;;;11.0;;
53939;SDS011;39850;43.324;21.916;2022-08-06T04:40:51;11.0;;;11.0;;
53939;SDS011;39850;43.324;21.916;2022-08-06T04:45:32;10.0;;;10.0;;
53939;SDS011;39850;43.324;21.916;2022-08-06T04:50:15;10.0;;;10.0;;
53939;SDS011;39850;43.324;21.916;2022-08-06T04:54:53;10.0;;;10.0;;
53939;SDS011;39850;43.324;21.916;2022-08-06T04:59:31;10.0;;;10.0;;
53939;SDS011;39850;43.324;21.916;2022-08-06T05:04:08;10.0;;;10.0;;
53939;SDS011;39850;43.324;21.916;2022-08-06T05:09:03;10.0;;;10.0;;
53939;SDS011;39850;43.324;21.916;2022-08-06T05:14:08;10.0;;;10.0;;
53939;SDS011;39850;43.324;21.916;2022-08-06T05:19:28;10.0;;;10.0;;
53939;SDS011;39850;43.324;21.916;2022-08-06T05:57:59;9.0;;;8.0;;
53939;SDS011;39850;43.324;21.916;2022-08-06T06:02:55;9.0;;;8.0;;
53939;SDS011;39850;43.324;21.916;2022-08-06T06:07:39;10.0;;;8.0;;
53939;SDS011;39850;43.324;21.916;2022-08-06T06:12:18;10.0;;;8.0;;
53939;SDS011;39850;43.324;21.916;2022-08-06T06:17:57;9.0;;;8.0;;
53939;SDS011;39850;43.324;21.916;2022-08-06T06:23:26;10.0;;;8.0;;
53939;SDS011;39850;43.324;21.916;2022-08-06T06:28:42;10.0;;;8.0;;
53939;SDS011;39850;43.324;21.916;2022-08-06T06:34:14;9.0;;;8.0;;
53939;SDS011;39850;43.324;21.916;2022-08-06T06:39:23;9.0;;;8.0;;
53939;SDS011;39850;43.324;21.916;2022-08-06T07:14:17;9.0;;;8.0;;
53939;SDS011;39850;43.324;21.916;2022-08-06T07:19:04;9.0;;;8.0;;
53939;SDS011;39850;43.324;21.916;2022-08-06T07:23:51;10.0;;;8.0;;
53939;SDS011;39850;43.324;21.916;2022-08-06T07:28:34;10.0;;;8.0;;
53939;SDS011;39850;43.324;21.916;2022-08-06T07:33:20;9.0;;;8.0;;
53939;SDS011;39850;43.324;21.916;2022-08-06T07:38:09;9.0;;;8.0;;
53939;SDS011;39850;43.324;21.916;2022-08-06T07:43:19;10.0;;;8.0;;
53939;SDS011;39850;43.324;21.916;2022-08-06T07:48:23;10.0;;;8.0;;
53939;SDS011;39850;43.324;21.916;2022-08-06T07:53:19;9.0;;;8.0;;
53939;SDS011;39850;43.324;21.916;2022-08-06T07:58:02;9.0;;;8.0;;
53939;SDS011;39850;43.324;21.916;2022-08-06T08:02:42;9.0;;;8.0;;
53939;SDS011;39850;43.324;21.916;2022-08-06T08:35:24;10.0;;;8.0;;
53939;SDS011;39850;43.324;21.916;2022-08-06T08:40:02;10.0;;;8.0;;
53939;SDS011;39850;43.324;21.916;2022-08-06T08:44:48;14.0;;;12.0;;
53939;SDS011;39850;43.324;21.916;2022-08-06T08:49:51;14.0;;;12.0;;
53939;SDS011;39850;43.324;21.916;2022-08-06T08:54:51;15.0;;;15.0;;
53939;SDS011;39850;43.324;21.916;2022-08-06T08:59:35;15.0;;;15.0;;
53939;SDS011;39850;43.324;21.916;2022-08-06T09:04:15;16.0;;;16.0;;
53939;SDS011;39850;43.324;21.916;2022-08-06T09:08:55;16.0;;;16.0;;
53939;SDS011;39850;43.324;21.916;2022-08-06T09:13:33;15.0;;;15.0;;
53939;SDS011;39850;43.324;21.916;2022-08-06T09:18:11;15.0;;;15.0;;
53939;SDS011;39850;43.324;21.916;2022-08-06T09:22:48;15.0;;;15.0;;
53939;SDS011;39850;43.324;21.916;2022-08-06T09:55:33;10.0;;;9.0;;
53939;SDS011;39850;43.324;21.916;2022-08-06T10:00:31;10.0;;;9.0;;
53939;SDS011;39850;43.324;21.916;2022-08-06T10:05:16;10.0;;;10.0;;
53939;SDS011;39850;43.324;21.916;2022-08-06T10:09:55;10.0;;;10.0;;
53939;SDS011;39850;43.324;21.916;2022-08-06T10:14:34;10.0;;;9.0;;
53939;SDS011;39850;43.324;21.916;2022-08-06T10:19:17;10.0;;;9.0;;
53939;SDS011;39850;43.324;21.916;2022-08-06T10:24:06;10.0;;;10.0;;
53939;SDS011;39850;43.324;21.916;2022-08-06T10:28:53;10.0;;;10.0;;
53939;SDS011;39850;43.324;21.916;2022-08-06T10:33:53;9.0;;;8.0;;
53939;SDS011;39850;43.324;21.916;2022-08-06T10:38:49;9.0;;;8.0;;
53939;SDS011;39850;43.324;21.916;2022-08-06T10:43:29;9.0;;;8.0;;
53939;SDS011;39850;43.324;21.916;2022-08-06T11:14:18;8.0;;;7.0;;
53939;SDS011;39850;43.324;21.916;2022-08-06T11:19:11;8.0;;;7.0;;
53939;SDS011;39850;43.324;21.916;2022-08-06T11:24:04;8.0;;;7.0;;
53939;SDS011;39850;43.324;21.916;2022-08-06T11:29:04;10.0;;;8.0;;
53939;SDS011;39850;43.324;21.916;2022-08-06T11:34:21;12.0;;;10.0;;
53939;SDS011;39850;43.324;21.916;2022-08-06T11:39:00;12.0;;;10.0;;
53939;SDS011;39850;43.324;21.916;2022-08-06T11:44:07;13.0;;;12.0;;
53939;SDS011;39850;43.324;21.916;2022-08-06T11:49:23;13.0;;;12.0;;
53939;SDS011;39850;43.324;21.916;2022-08-06T11:54:18;14.0;;;13.0;;
53939;SDS011;39850;43.324;21.916;2022-08-06T11:59:15;14.0;;;13.0;;
53939;SDS011;39850;43.324;21.916;2022-08-06T12:03:51;14.0;;;13.0;;
53939;SDS011;39850;43.324;21.916;2022-08-06T12:37:05;10.0;;;8.0;;
53939;SDS011;39850;43.324;21.916;2022-08-06T12:41:42;10.0;;;8.0;;
53939;SDS011;39850;43.324;21.916;2022-08-06T12:46:19;12.0;;;10.0;;
53939;SDS011;39850;43.324;21.916;2022-08-06T12:51:11;12.0;;;10.0;;
53939;SDS011;39850;43.324;21.916;2022-08-06T12:55:57;13.0;;;12.0;;
53939;SDS011;39850;43.324;21.916;2022-08-06T13:00:36;13.0;;;12.0;;
53939;SDS011;39850;43.324;21.916;2022-08-06T13:05:19;14.0;;;13.0;;
53939;SDS011;39850;43.324;21.916;2022-08-06T13:10:13;14.0;;;13.0;;
53939;SDS011;39850;43.324;21.916;2022-08-06T13:14:55;14.0;;;14.0;;
53939;SDS011;39850;43.324;21.916;2022-08-06T13:19:33;14.0;;;14.0;;
53939;SDS011;39850;43.324;21.916;2022-08-06T13:57:31;9.0;;;7.0;;
53939;SDS011;39850;43.324;21.916;2022-08-06T14:02:11;9.0;;;7.0;;
53939;SDS011;39850;43.324;21.916;2022-08-06T14:06:56;9.0;;;7.0;;
53939;SDS011;39850;43.324;21.916;2022-08-06T14:11:35;9.0;;;7.0;;
53939;SDS011;39850;43.324;21.916;2022-08-06T14:16:11;9.0;;;7.0;;
53939;SDS011;39850;43.324;21.916;2022-08-06T14:20:48;9.0;;;7.0;;
53939;SDS011;39850;43.324;21.916;2022-08-06T14:25:27;9.0;;;7.0;;
53939;SDS011;39850;43.324;21.916;2022-08-06T14:30:09;9.0;;;7.0;;
53939;SDS011;39850;43.324;21.916;2022-08-06T14:34:46;9.0;;;7.0;;
53939;SDS011;39850;43.324;21.916;2022-08-06T14:39:23;9.0;;;7.0;;
53939;SDS011;39850;43.324;21.916;2022-08-06T14:44:00;9.0;;;7.0;;
53939;SDS011;39850;43.324;21.916;2022-08-06T15:16:17;8.0;;;7.0;;
53939;SDS011;39850;43.324;21.916;2022-08-06T15:20:54;8.0;;;7.0;;
53939;SDS011;39850;43.324;21.916;2022-08-06T15:25:31;8.0;;;7.0;;
53939;SDS011;39850;43.324;21.916;2022-08-06T15:30:13;8.0;;;7.0;;
53939;SDS011;39850;43.324;21.916;2022-08-06T15:34:52;8.0;;;7.0;;
53939;SDS011;39850;43.324;21.916;2022-08-06T15:39:34;8.0;;;7.0;;
53939;SDS011;39850;43.324;21.916;2022-08-06T15:44:12;8.0;;;7.0;;
53939;SDS011;39850;43.324;21.916;2022-08-06T15:48:49;8.0;;;7.0;;
53939;SDS011;39850;43.324;21.916;2022-08-06T15:53:27;8.0;;;7.0;;
53939;SDS011;39850;43.324;21.916;2022-08-06T15:58:04;8.0;;;7.0;;
53939;SDS011;39850;43.324;21.916;2022-08-06T16:02:41;8.0;;;7.0;;
53939;SDS011;39850;43.324;21.916;2022-08-06T16:39:38;10.0;;;9.0;;
53939;SDS011;39850;43.324;21.916;2022-08-06T16:44:14;10.0;;;9.0;;
53939;SDS011;39850;43.324;21.916;2022-08-06T16:48:51;10.0;;;10.0;;
53939;SDS011;39850;43.324;21.916;2022-08-06T16:53:28;10.0;;;10.0;;
53939;SDS011;39850;43.324;21.916;2022-08-06T16:58:05;10.0;;;9.0;;
53939;SDS011;39850;43.324;21.916;2022-08-06T17:02:44;10.0;;;9.0;;
53939;SDS011;39850;43.324;21.916;2022-08-06T17:07:20;10.0;;;10.0;;
53939;SDS011;39850;43.324;21.916;2022-08-06T17:11:57;10.0;;;10.0;;
53939;SDS011;39850;43.324;21.916;2022-08-06T17:16:34;10.0;;;9.0;;
53939;SDS011;39850;43.324;21.916;2022-08-06T17:21:10;10.0;;;9.0;;
53939;SDS011;39850;43.324;21.916;2022-08-06T17:58:18;19.0;;;19.0;;
53939;SDS011;39850;43.324;21.916;2022-08-06T18:02:55;19.0;;;19.0;;
53939;SDS011;39850;43.324;21.916;2022-08-06T18:07:32;16.0;;;15.0;;
53939;SDS011;39850;43.324;21.916;2022-08-06T18:12:11;16.0;;;15.0;;
53939;SDS011;39850;43.324;21.916;2022-08-06T18:16:48;12.0;;;11.0;;
53939;SDS011;39850;43.324;21.916;2022-08-06T18:21:25;12.0;;;11.0;;
53939;SDS011;39850;43.324;21.916;2022-08-06T18:26:02;12.0;;;10.0;;
53939;SDS011;39850;43.324;21.916;2022-08-06T18:30:39;12.0;;;10.0;;
53939;SDS011;39850;43.324;21.916;2022-08-06T18:35:16;12.0;;;10.0;;
53939;SDS011;39850;43.324;21.916;2022-08-06T18:39:53;12.0;;;10.0;;
53939;SDS011;39850;43.324;21.916;2022-08-06T18:44:31;12.0;;;10.0;;
53939;SDS011;39850;43.324;21.916;2022-08-06T19:16:55;52.0;;;55.0;;
53939;SDS011;39850;43.324;21.916;2022-08-06T19:21:32;52.0;;;55.0;;
53939;SDS011;39850;43.324;21.916;2022-08-06T19:26:08;34.0;;;34.0;;
53939;SDS011;39850;43.324;21.916;2022-08-06T19:30:46;34.0;;;34.0;;
53939;SDS011;39850;43.324;21.916;2022-08-06T19:35:23;34.0;;;34.0;;
53939;SDS011;39850;43.324;21.916;2022-08-06T19:40:00;18.0;;;14.0;;
53939;SDS011;39850;43.324;21.916;2022-08-06T19:44:37;18.0;;;14.0;;
53939;SDS011;39850;43.324;21.916;2022-08-06T19:49:14;16.0;;;14.0;;
53939;SDS011;39850;43.324;21.916;2022-08-06T19:53:51;16.0;;;14.0;;
53939;SDS011;39850;43.324;21.916;2022-08-06T19:58:28;18.0;;;14.0;;
53939;SDS011;39850;43.324;21.916;2022-08-06T20:03:05;18.0;;;14.0;;
53939;SDS011;39850;43.324;21.916;2022-08-06T20:39:59;16.0;;;12.0;;
53939;SDS011;39850;43.324;21.916;2022-08-06T20:44:37;16.0;;;12.0;;
53939;SDS011;39850;43.324;21.916;2022-08-06T20:49:15;14.0;;;12.0;;
53939;SDS011;39850;43.324;21.916;2022-08-06T20:53:54;14.0;;;12.0;;
53939;SDS011;39850;43.324;21.916;2022-08-06T20:58:31;13.0;;;11.0;;
53939;SDS011;39850;43.324;21.916;2022-08-06T21:03:08;13.0;;;11.0;;
53939;SDS011;39850;43.324;21.916;2022-08-06T21:07:53;12.0;;;10.0;;
53939;SDS011;39850;43.324;21.916;2022-08-06T21:12:33;12.0;;;10.0;;
53939;SDS011;39850;43.324;21.916;2022-08-06T21:17:10;11.0;;;10.0;;
53939;SDS011;39850;43.324;21.916;2022-08-06T21:21:47;11.0;;;10.0;;
53939;SDS011;39850;43.324;21.916;2022-08-06T21:58:47;11.0;;;10.0;;
53939;SDS011;39850;43.324;21.916;2022-08-06T22:03:25;11.0;;;10.0;;
53939;SDS011;39850;43.324;21.916;2022-08-06T22:08:03;11.0;;;10.0;;
53939;SDS011;39850;43.324;21.916;2022-08-06T22:12:40;11.0;;;10.0;;
53939;SDS011;39850;43.324;21.916;2022-08-06T22:17:17;12.0;;;10.0;;
53939;SDS011;39850;43.324;21.916;2022-08-06T22:21:54;12.0;;;10.0;;
53939;SDS011;39850;43.324;21.916;2022-08-06T22:26:31;12.0;;;11.0;;
53939;SDS011;39850;43.324;21.916;2022-08-06T22:31:08;12.0;;;11.0;;
53939;SDS011;39850;43.324;21.916;2022-08-06T22:35:52;12.0;;;11.0;;
53939;SDS011;39850;43.324;21.916;2022-08-06T22:40:31;12.0;;;11.0;;
53939;SDS011;39850;43.324;21.916;2022-08-06T22:45:11;12.0;;;11.0;;
53939;SDS011;39850;43.324;21.916;2022-08-06T23:17:30;9.0;;;8.0;;
53939;SDS011;39850;43.324;21.916;2022-08-06T23:22:07;9.0;;;8.0;;
53939;SDS011;39850;43.324;21.916;2022-08-06T23:26:44;9.0;;;8.0;;
53939;SDS011;39850;43.324;21.916;2022-08-06T23:31:21;9.0;;;8.0;;
53939;SDS011;39850;43.324;21.916;2022-08-06T23:35:58;9.0;;;8.0;;
53939;SDS011;39850;43.324;21.916;2022-08-06T23:40:35;9.0;;;8.0;;
53939;SDS011;39850;43.324;21.916;2022-08-06T23:45:12;9.0;;;8.0;;
53939;SDS011;39850;43.324;21.916;2022-08-06T23:49:49;9.0;;;8.0;;
53939;SDS011;39850;43.324;21.916;2022-08-06T23:54:26;9.0;;;8.0;;
53939;SDS011;39850;43.324;21.916;2022-08-06T23:59:03;9.0;;;8.0;;
